sensor_id;sensor_type;location;lat;lon;timestamp;P1;durP1;ratioP1;P2;durP2;ratioP2
11931;SDS011;6025;51.368;6.788;2022-08-19T00:02:58;8.75;;;6.63;;
11931;SDS011;6025;51.368;6.788;2022-08-19T00:07:50;9.70;;;6.88;;
11931;SDS011;6025;51.368;6.788;2022-08-19T00:12:42;10.07;;;6.43;;
11931;SDS011;6025;51.368;6.788;2022-08-19T00:17:34;7.38;;;6.68;;
11931;SDS011;6025;51.368;6.788;2022-08-19T00:22:27;7.57;;;6.45;;
11931;SDS011;6025;51.368;6.788;2022-08-19T00:27:18;7.20;;;6.28;;
11931;SDS011;6025;51.368;6.788;2022-08-19T00:32:10;6.93;;;6.22;;
11931;SDS011;6025;51.368;6.788;2022-08-19T00:37:02;9.90;;;6.22;;
11931;SDS011;6025;51.368;6.788;2022-08-19T00:41:55;7.72;;;6.75;;
11931;SDS011;6025;51.368;6.788;2022-08-19T00:46:48;7.30;;;6.60;;
11931;SDS011;6025;51.368;6.788;2022-08-19T00:51:41;6.60;;;6.00;;
11931;SDS011;6025;51.368;6.788;2022-08-19T00:56:33;9.27;;;7.00;;
11931;SDS011;6025;51.368;6.788;2022-08-19T01:01:27;7.75;;;6.43;;
11931;SDS011;6025;51.368;6.788;2022-08-19T01:06:18;7.82;;;7.03;;
11931;SDS011;6025;51.368;6.788;2022-08-19T01:11:11;7.65;;;6.85;;
11931;SDS011;6025;51.368;6.788;2022-08-19T01:16:04;8.30;;;6.82;;
11931;SDS011;6025;51.368;6.788;2022-08-19T01:21:00;7.05;;;6.35;;
11931;SDS011;6025;51.368;6.788;2022-08-19T01:25:55;9.57;;;6.88;;
11931;SDS011;6025;51.368;6.788;2022-08-19T01:30:47;7.88;;;7.07;;
11931;SDS011;6025;51.368;6.788;2022-08-19T01:35:40;7.90;;;7.10;;
11931;SDS011;6025;51.368;6.788;2022-08-19T01:40:32;7.85;;;7.15;;
11931;SDS011;6025;51.368;6.788;2022-08-19T01:45:27;8.55;;;7.47;;
11931;SDS011;6025;51.368;6.788;2022-08-19T01:50:20;8.95;;;7.32;;
11931;SDS011;6025;51.368;6.788;2022-08-19T01:55:13;8.40;;;7.60;;
11931;SDS011;6025;51.368;6.788;2022-08-19T02:00:07;7.35;;;6.68;;
11931;SDS011;6025;51.368;6.788;2022-08-19T02:05:02;9.05;;;6.80;;
11931;SDS011;6025;51.368;6.788;2022-08-19T02:09:54;13.68;;;7.70;;
11931;SDS011;6025;51.368;6.788;2022-08-19T02:14:47;9.43;;;7.45;;
11931;SDS011;6025;51.368;6.788;2022-08-19T02:19:39;7.32;;;6.60;;
11931;SDS011;6025;51.368;6.788;2022-08-19T02:24:32;8.48;;;7.07;;
11931;SDS011;6025;51.368;6.788;2022-08-19T02:29:24;8.35;;;7.53;;
11931;SDS011;6025;51.368;6.788;2022-08-19T02:34:16;8.45;;;7.50;;
11931;SDS011;6025;51.368;6.788;2022-08-19T02:39:07;7.90;;;7.10;;
11931;SDS011;6025;51.368;6.788;2022-08-19T02:44:01;8.48;;;6.85;;
11931;SDS011;6025;51.368;6.788;2022-08-19T02:48:56;8.30;;;7.20;;
11931;SDS011;6025;51.368;6.788;2022-08-19T02:53:49;7.57;;;6.88;;
11931;SDS011;6025;51.368;6.788;2022-08-19T02:58:41;7.22;;;6.53;;
11931;SDS011;6025;51.368;6.788;2022-08-19T03:03:35;7.20;;;6.50;;
11931;SDS011;6025;51.368;6.788;2022-08-19T03:08:27;9.02;;;6.60;;
11931;SDS011;6025;51.368;6.788;2022-08-19T03:13:18;8.98;;;6.85;;
11931;SDS011;6025;51.368;6.788;2022-08-19T03:18:10;6.80;;;6.20;;
11931;SDS011;6025;51.368;6.788;2022-08-19T03:23:04;10.65;;;6.82;;
11931;SDS011;6025;51.368;6.788;2022-08-19T03:27:55;8.40;;;6.75;;
11931;SDS011;6025;51.368;6.788;2022-08-19T03:32:47;7.72;;;6.75;;
11931;SDS011;6025;51.368;6.788;2022-08-19T03:37:39;7.20;;;6.50;;
11931;SDS011;6025;51.368;6.788;2022-08-19T03:42:32;7.95;;;7.13;;
11931;SDS011;6025;51.368;6.788;2022-08-19T03:47:23;8.85;;;6.95;;
11931;SDS011;6025;51.368;6.788;2022-08-19T03:52:15;7.72;;;6.90;;
11931;SDS011;6025;51.368;6.788;2022-08-19T03:57:07;7.47;;;6.78;;
11931;SDS011;6025;51.368;6.788;2022-08-19T04:02:01;7.53;;;6.78;;
11931;SDS011;6025;51.368;6.788;2022-08-19T04:06:58;8.05;;;7.13;;
11931;SDS011;6025;51.368;6.788;2022-08-19T04:11:51;7.85;;;7.05;;
11931;SDS011;6025;51.368;6.788;2022-08-19T04:16:44;8.13;;;7.30;;
11931;SDS011;6025;51.368;6.788;2022-08-19T04:21:38;9.27;;;7.68;;
11931;SDS011;6025;51.368;6.788;2022-08-19T04:26:32;9.73;;;7.95;;
11931;SDS011;6025;51.368;6.788;2022-08-19T04:31:25;7.82;;;7.10;;
11931;SDS011;6025;51.368;6.788;2022-08-19T04:36:18;8.10;;;7.22;;
11931;SDS011;6025;51.368;6.788;2022-08-19T04:41:13;7.53;;;6.82;;
11931;SDS011;6025;51.368;6.788;2022-08-19T04:46:22;7.70;;;7.00;;
11931;SDS011;6025;51.368;6.788;2022-08-19T04:51:14;7.22;;;6.63;;
11931;SDS011;6025;51.368;6.788;2022-08-19T04:56:08;9.68;;;6.60;;
11931;SDS011;6025;51.368;6.788;2022-08-19T05:01:02;9.75;;;7.68;;
11931;SDS011;6025;51.368;6.788;2022-08-19T05:05:54;9.02;;;8.00;;
11931;SDS011;6025;51.368;6.788;2022-08-19T05:10:46;15.70;;;9.23;;
11931;SDS011;6025;51.368;6.788;2022-08-19T05:15:38;12.15;;;10.95;;
11931;SDS011;6025;51.368;6.788;2022-08-19T05:20:31;10.25;;;9.35;;
11931;SDS011;6025;51.368;6.788;2022-08-19T05:25:40;10.18;;;8.80;;
11931;SDS011;6025;51.368;6.788;2022-08-19T05:30:32;10.82;;;9.75;;
11931;SDS011;6025;51.368;6.788;2022-08-19T05:35:24;11.38;;;10.18;;
11931;SDS011;6025;51.368;6.788;2022-08-19T05:40:17;10.88;;;9.68;;
11931;SDS011;6025;51.368;6.788;2022-08-19T05:45:09;12.73;;;9.82;;
11931;SDS011;6025;51.368;6.788;2022-08-19T05:50:01;14.98;;;12.35;;
11931;SDS011;6025;51.368;6.788;2022-08-19T05:54:53;17.13;;;14.65;;
11931;SDS011;6025;51.368;6.788;2022-08-19T05:59:46;20.63;;;18.45;;
11931;SDS011;6025;51.368;6.788;2022-08-19T06:04:41;22.70;;;18.65;;
11931;SDS011;6025;51.368;6.788;2022-08-19T06:09:33;26.02;;;21.80;;
11931;SDS011;6025;51.368;6.788;2022-08-19T06:14:26;27.20;;;24.23;;
11931;SDS011;6025;51.368;6.788;2022-08-19T06:19:21;32.00;;;28.52;;
11931;SDS011;6025;51.368;6.788;2022-08-19T06:24:14;45.03;;;38.90;;
11931;SDS011;6025;51.368;6.788;2022-08-19T06:29:08;44.30;;;37.55;;
11931;SDS011;6025;51.368;6.788;2022-08-19T06:34:02;45.53;;;38.58;;
11931;SDS011;6025;51.368;6.788;2022-08-19T06:38:56;44.83;;;40.10;;
11931;SDS011;6025;51.368;6.788;2022-08-19T06:43:48;47.45;;;39.85;;
11931;SDS011;6025;51.368;6.788;2022-08-19T06:48:40;52.15;;;43.53;;
11931;SDS011;6025;51.368;6.788;2022-08-19T06:53:32;57.15;;;47.40;;
11931;SDS011;6025;51.368;6.788;2022-08-19T06:58:25;53.70;;;46.38;;
11931;SDS011;6025;51.368;6.788;2022-08-19T07:03:16;57.80;;;46.67;;
11931;SDS011;6025;51.368;6.788;2022-08-19T07:08:08;57.58;;;46.75;;
11931;SDS011;6025;51.368;6.788;2022-08-19T07:13:00;55.22;;;47.67;;
11931;SDS011;6025;51.368;6.788;2022-08-19T07:17:53;53.28;;;44.70;;
11931;SDS011;6025;51.368;6.788;2022-08-19T07:22:45;45.95;;;39.88;;
11931;SDS011;6025;51.368;6.788;2022-08-19T07:27:37;54.00;;;42.30;;
11931;SDS011;6025;51.368;6.788;2022-08-19T07:32:28;48.55;;;39.03;;
11931;SDS011;6025;51.368;6.788;2022-08-19T07:37:22;41.92;;;33.10;;
11931;SDS011;6025;51.368;6.788;2022-08-19T07:42:14;38.92;;;28.77;;
11931;SDS011;6025;51.368;6.788;2022-08-19T07:47:07;34.47;;;26.35;;
11931;SDS011;6025;51.368;6.788;2022-08-19T07:51:59;35.70;;;27.67;;
11931;SDS011;6025;51.368;6.788;2022-08-19T07:56:55;29.50;;;20.67;;
11931;SDS011;6025;51.368;6.788;2022-08-19T08:01:47;29.77;;;19.88;;
11931;SDS011;6025;51.368;6.788;2022-08-19T08:06:40;28.02;;;23.35;;
11931;SDS011;6025;51.368;6.788;2022-08-19T08:11:51;29.27;;;24.83;;
11931;SDS011;6025;51.368;6.788;2022-08-19T08:16:46;26.23;;;20.83;;
11931;SDS011;6025;51.368;6.788;2022-08-19T08:21:38;31.95;;;22.98;;
11931;SDS011;6025;51.368;6.788;2022-08-19T08:26:29;28.35;;;24.67;;
11931;SDS011;6025;51.368;6.788;2022-08-19T08:31:21;37.95;;;27.80;;
11931;SDS011;6025;51.368;6.788;2022-08-19T08:36:15;28.85;;;22.75;;
11931;SDS011;6025;51.368;6.788;2022-08-19T08:41:09;23.80;;;20.75;;
11931;SDS011;6025;51.368;6.788;2022-08-19T08:46:12;24.88;;;21.98;;
11931;SDS011;6025;51.368;6.788;2022-08-19T08:51:08;24.65;;;19.10;;
11931;SDS011;6025;51.368;6.788;2022-08-19T08:56:03;27.55;;;23.30;;
11931;SDS011;6025;51.368;6.788;2022-08-19T09:00:55;27.30;;;22.20;;
11931;SDS011;6025;51.368;6.788;2022-08-19T09:05:49;28.27;;;22.83;;
11931;SDS011;6025;51.368;6.788;2022-08-19T09:10:49;24.55;;;17.15;;
11931;SDS011;6025;51.368;6.788;2022-08-19T09:15:46;27.88;;;20.92;;
11931;SDS011;6025;51.368;6.788;2022-08-19T09:20:39;26.83;;;19.88;;
11931;SDS011;6025;51.368;6.788;2022-08-19T09:25:31;26.92;;;20.33;;
11931;SDS011;6025;51.368;6.788;2022-08-19T09:30:26;21.63;;;18.08;;
11931;SDS011;6025;51.368;6.788;2022-08-19T09:35:20;32.60;;;25.42;;
11931;SDS011;6025;51.368;6.788;2022-08-19T09:40:13;28.20;;;24.02;;
11931;SDS011;6025;51.368;6.788;2022-08-19T09:45:05;25.35;;;21.20;;
11931;SDS011;6025;51.368;6.788;2022-08-19T09:49:57;28.48;;;21.85;;
11931;SDS011;6025;51.368;6.788;2022-08-19T09:54:52;23.17;;;19.40;;
11931;SDS011;6025;51.368;6.788;2022-08-19T09:59:44;23.85;;;20.90;;
11931;SDS011;6025;51.368;6.788;2022-08-19T10:04:35;31.48;;;20.25;;
11931;SDS011;6025;51.368;6.788;2022-08-19T10:09:45;22.38;;;17.10;;
11931;SDS011;6025;51.368;6.788;2022-08-19T10:14:38;22.92;;;18.08;;
11931;SDS011;6025;51.368;6.788;2022-08-19T10:19:30;18.15;;;16.23;;
11931;SDS011;6025;51.368;6.788;2022-08-19T10:24:26;20.20;;;16.58;;
11931;SDS011;6025;51.368;6.788;2022-08-19T10:29:17;18.75;;;16.52;;
11931;SDS011;6025;51.368;6.788;2022-08-19T10:34:11;16.05;;;13.70;;
11931;SDS011;6025;51.368;6.788;2022-08-19T10:39:03;17.73;;;14.65;;
11931;SDS011;6025;51.368;6.788;2022-08-19T10:43:57;20.05;;;15.45;;
11931;SDS011;6025;51.368;6.788;2022-08-19T10:48:51;17.73;;;15.50;;
11931;SDS011;6025;51.368;6.788;2022-08-19T10:53:44;18.95;;;16.30;;
11931;SDS011;6025;51.368;6.788;2022-08-19T10:58:36;16.15;;;14.15;;
11931;SDS011;6025;51.368;6.788;2022-08-19T11:03:27;15.90;;;14.23;;
11931;SDS011;6025;51.368;6.788;2022-08-19T11:08:20;13.77;;;12.27;;
11931;SDS011;6025;51.368;6.788;2022-08-19T11:13:13;12.05;;;10.48;;
11931;SDS011;6025;51.368;6.788;2022-08-19T11:18:05;13.10;;;11.07;;
11931;SDS011;6025;51.368;6.788;2022-08-19T11:22:58;10.43;;;9.43;;
11931;SDS011;6025;51.368;6.788;2022-08-19T11:27:49;10.13;;;8.57;;
11931;SDS011;6025;51.368;6.788;2022-08-19T11:32:43;11.13;;;8.75;;
11931;SDS011;6025;51.368;6.788;2022-08-19T11:37:35;11.43;;;8.43;;
11931;SDS011;6025;51.368;6.788;2022-08-19T11:42:28;12.52;;;7.45;;
11931;SDS011;6025;51.368;6.788;2022-08-19T11:47:37;8.38;;;7.05;;
11931;SDS011;6025;51.368;6.788;2022-08-19T11:52:30;14.90;;;7.97;;
11931;SDS011;6025;51.368;6.788;2022-08-19T11:57:22;7.28;;;6.57;;
11931;SDS011;6025;51.368;6.788;2022-08-19T12:02:13;10.30;;;7.18;;
11931;SDS011;6025;51.368;6.788;2022-08-19T12:07:05;8.27;;;6.43;;
11931;SDS011;6025;51.368;6.788;2022-08-19T12:11:58;9.77;;;7.78;;
11931;SDS011;6025;51.368;6.788;2022-08-19T12:16:51;9.23;;;7.00;;
11931;SDS011;6025;51.368;6.788;2022-08-19T12:21:43;8.32;;;5.60;;
11931;SDS011;6025;51.368;6.788;2022-08-19T12:26:35;5.40;;;4.90;;
11931;SDS011;6025;51.368;6.788;2022-08-19T12:31:28;6.05;;;5.15;;
11931;SDS011;6025;51.368;6.788;2022-08-19T12:36:20;6.30;;;4.57;;
11931;SDS011;6025;51.368;6.788;2022-08-19T12:41:14;7.00;;;4.70;;
11931;SDS011;6025;51.368;6.788;2022-08-19T12:46:08;5.80;;;4.57;;
11931;SDS011;6025;51.368;6.788;2022-08-19T12:51:05;4.40;;;4.00;;
11931;SDS011;6025;51.368;6.788;2022-08-19T12:55:58;4.85;;;3.65;;
11931;SDS011;6025;51.368;6.788;2022-08-19T13:00:50;4.68;;;3.78;;
11931;SDS011;6025;51.368;6.788;2022-08-19T13:05:42;5.35;;;4.65;;
11931;SDS011;6025;51.368;6.788;2022-08-19T13:10:35;6.53;;;4.50;;
11931;SDS011;6025;51.368;6.788;2022-08-19T13:15:27;4.22;;;3.17;;
11931;SDS011;6025;51.368;6.788;2022-08-19T13:20:21;6.85;;;3.00;;
11931;SDS011;6025;51.368;6.788;2022-08-19T13:25:13;4.97;;;3.72;;
11931;SDS011;6025;51.368;6.788;2022-08-19T13:30:09;4.72;;;3.67;;
11931;SDS011;6025;51.368;6.788;2022-08-19T13:35:20;5.78;;;3.53;;
11931;SDS011;6025;51.368;6.788;2022-08-19T13:40:13;3.03;;;2.72;;
11931;SDS011;6025;51.368;6.788;2022-08-19T13:45:09;4.47;;;3.40;;
11931;SDS011;6025;51.368;6.788;2022-08-19T13:50:02;7.22;;;4.05;;
11931;SDS011;6025;51.368;6.788;2022-08-19T13:54:53;5.45;;;3.88;;
11931;SDS011;6025;51.368;6.788;2022-08-19T13:59:46;10.00;;;6.78;;
11931;SDS011;6025;51.368;6.788;2022-08-19T14:04:39;5.93;;;4.00;;
11931;SDS011;6025;51.368;6.788;2022-08-19T14:09:31;5.07;;;3.67;;
11931;SDS011;6025;51.368;6.788;2022-08-19T14:14:22;4.88;;;3.25;;
11931;SDS011;6025;51.368;6.788;2022-08-19T14:19:14;4.60;;;3.30;;
11931;SDS011;6025;51.368;6.788;2022-08-19T14:24:07;7.25;;;3.92;;
11931;SDS011;6025;51.368;6.788;2022-08-19T14:28:59;5.97;;;3.50;;
11931;SDS011;6025;51.368;6.788;2022-08-19T14:33:51;6.55;;;3.67;;
11931;SDS011;6025;51.368;6.788;2022-08-19T14:38:42;8.65;;;4.13;;
11931;SDS011;6025;51.368;6.788;2022-08-19T14:43:35;7.55;;;4.28;;
11931;SDS011;6025;51.368;6.788;2022-08-19T14:48:28;7.93;;;3.88;;
11931;SDS011;6025;51.368;6.788;2022-08-19T14:53:19;4.25;;;3.17;;
11931;SDS011;6025;51.368;6.788;2022-08-19T14:58:12;7.88;;;3.00;;
11931;SDS011;6025;51.368;6.788;2022-08-19T15:03:06;5.80;;;3.03;;
11931;SDS011;6025;51.368;6.788;2022-08-19T15:07:57;3.72;;;2.65;;
11931;SDS011;6025;51.368;6.788;2022-08-19T15:12:49;3.88;;;2.90;;
11931;SDS011;6025;51.368;6.788;2022-08-19T15:17:41;4.13;;;2.42;;
11931;SDS011;6025;51.368;6.788;2022-08-19T15:22:34;3.75;;;2.50;;
11931;SDS011;6025;51.368;6.788;2022-08-19T15:27:26;5.07;;;2.77;;
11931;SDS011;6025;51.368;6.788;2022-08-19T15:32:18;7.32;;;2.63;;
11931;SDS011;6025;51.368;6.788;2022-08-19T15:37:09;4.18;;;3.15;;
11931;SDS011;6025;51.368;6.788;2022-08-19T15:42:03;5.10;;;3.50;;
11931;SDS011;6025;51.368;6.788;2022-08-19T15:46:54;7.72;;;4.20;;
11931;SDS011;6025;51.368;6.788;2022-08-19T15:51:47;3.38;;;3.08;;
11931;SDS011;6025;51.368;6.788;2022-08-19T15:56:40;4.97;;;3.78;;
11931;SDS011;6025;51.368;6.788;2022-08-19T16:01:51;5.75;;;3.65;;
11931;SDS011;6025;51.368;6.788;2022-08-19T16:07:00;5.55;;;4.30;;
11931;SDS011;6025;51.368;6.788;2022-08-19T16:11:52;5.90;;;4.65;;
11931;SDS011;6025;51.368;6.788;2022-08-19T16:16:44;9.18;;;5.60;;
11931;SDS011;6025;51.368;6.788;2022-08-19T16:21:38;6.20;;;5.45;;
11931;SDS011;6025;51.368;6.788;2022-08-19T16:26:30;8.57;;;6.80;;
11931;SDS011;6025;51.368;6.788;2022-08-19T16:31:22;9.35;;;7.75;;
11931;SDS011;6025;51.368;6.788;2022-08-19T16:36:14;9.98;;;8.98;;
11931;SDS011;6025;51.368;6.788;2022-08-19T16:41:08;11.80;;;9.10;;
11931;SDS011;6025;51.368;6.788;2022-08-19T16:46:00;11.75;;;9.57;;
11931;SDS011;6025;51.368;6.788;2022-08-19T16:50:52;10.30;;;8.90;;
11931;SDS011;6025;51.368;6.788;2022-08-19T16:55:44;10.90;;;8.23;;
11931;SDS011;6025;51.368;6.788;2022-08-19T17:00:41;10.30;;;8.00;;
11931;SDS011;6025;51.368;6.788;2022-08-19T17:05:32;8.85;;;7.70;;
11931;SDS011;6025;51.368;6.788;2022-08-19T17:10:24;11.27;;;8.82;;
11931;SDS011;6025;51.368;6.788;2022-08-19T17:15:16;11.07;;;8.23;;
11931;SDS011;6025;51.368;6.788;2022-08-19T17:20:09;10.60;;;8.45;;
11931;SDS011;6025;51.368;6.788;2022-08-19T17:25:01;12.70;;;9.43;;
11931;SDS011;6025;51.368;6.788;2022-08-19T17:29:53;11.07;;;8.70;;
11931;SDS011;6025;51.368;6.788;2022-08-19T17:34:46;11.70;;;8.85;;
11931;SDS011;6025;51.368;6.788;2022-08-19T17:39:39;11.80;;;9.90;;
11931;SDS011;6025;51.368;6.788;2022-08-19T17:44:31;12.98;;;8.65;;
11931;SDS011;6025;51.368;6.788;2022-08-19T17:49:25;14.95;;;10.52;;
11931;SDS011;6025;51.368;6.788;2022-08-19T17:54:17;13.50;;;10.80;;
11931;SDS011;6025;51.368;6.788;2022-08-19T17:59:11;15.27;;;11.00;;
11931;SDS011;6025;51.368;6.788;2022-08-19T18:04:03;12.48;;;10.50;;
11931;SDS011;6025;51.368;6.788;2022-08-19T18:08:56;15.75;;;8.70;;
11931;SDS011;6025;51.368;6.788;2022-08-19T18:13:48;8.57;;;6.53;;
11931;SDS011;6025;51.368;6.788;2022-08-19T18:18:41;8.10;;;5.82;;
11931;SDS011;6025;51.368;6.788;2022-08-19T18:23:33;11.90;;;7.13;;
11931;SDS011;6025;51.368;6.788;2022-08-19T18:28:25;9.05;;;6.85;;
11931;SDS011;6025;51.368;6.788;2022-08-19T18:33:17;8.88;;;7.35;;
11931;SDS011;6025;51.368;6.788;2022-08-19T18:38:10;9.90;;;7.40;;
11931;SDS011;6025;51.368;6.788;2022-08-19T18:43:20;10.05;;;7.78;;
11931;SDS011;6025;51.368;6.788;2022-08-19T18:48:29;11.05;;;7.50;;
11931;SDS011;6025;51.368;6.788;2022-08-19T18:53:40;10.73;;;7.43;;
11931;SDS011;6025;51.368;6.788;2022-08-19T18:58:33;9.20;;;6.72;;
11931;SDS011;6025;51.368;6.788;2022-08-19T19:03:24;9.57;;;6.35;;
11931;SDS011;6025;51.368;6.788;2022-08-19T19:08:16;8.07;;;5.85;;
11931;SDS011;6025;51.368;6.788;2022-08-19T19:13:09;8.38;;;6.35;;
11931;SDS011;6025;51.368;6.788;2022-08-19T19:18:05;8.55;;;6.22;;
11931;SDS011;6025;51.368;6.788;2022-08-19T19:22:57;8.48;;;5.63;;
11931;SDS011;6025;51.368;6.788;2022-08-19T19:27:48;8.77;;;5.88;;
11931;SDS011;6025;51.368;6.788;2022-08-19T19:32:41;7.65;;;5.80;;
11931;SDS011;6025;51.368;6.788;2022-08-19T19:37:33;7.75;;;5.88;;
11931;SDS011;6025;51.368;6.788;2022-08-19T19:42:25;9.77;;;6.03;;
11931;SDS011;6025;51.368;6.788;2022-08-19T19:47:16;8.02;;;5.82;;
11931;SDS011;6025;51.368;6.788;2022-08-19T19:52:10;7.97;;;6.03;;
11931;SDS011;6025;51.368;6.788;2022-08-19T19:57:02;8.90;;;5.80;;
11931;SDS011;6025;51.368;6.788;2022-08-19T20:01:54;7.43;;;6.05;;
11931;SDS011;6025;51.368;6.788;2022-08-19T20:06:46;7.70;;;6.43;;
11931;SDS011;6025;51.368;6.788;2022-08-19T20:11:41;8.07;;;6.05;;
11931;SDS011;6025;51.368;6.788;2022-08-19T20:16:34;10.27;;;5.75;;
11931;SDS011;6025;51.368;6.788;2022-08-19T20:21:28;7.93;;;5.38;;
11931;SDS011;6025;51.368;6.788;2022-08-19T20:26:21;7.57;;;5.75;;
11931;SDS011;6025;51.368;6.788;2022-08-19T20:31:14;8.88;;;5.88;;
11931;SDS011;6025;51.368;6.788;2022-08-19T20:36:06;6.57;;;5.30;;
11931;SDS011;6025;51.368;6.788;2022-08-19T20:40:58;8.13;;;5.28;;
11931;SDS011;6025;51.368;6.788;2022-08-19T20:45:49;8.23;;;5.30;;
11931;SDS011;6025;51.368;6.788;2022-08-19T20:50:43;7.25;;;4.97;;
11931;SDS011;6025;51.368;6.788;2022-08-19T20:55:34;9.82;;;4.90;;
11931;SDS011;6025;51.368;6.788;2022-08-19T21:00:26;7.70;;;4.95;;
11931;SDS011;6025;51.368;6.788;2022-08-19T21:05:18;7.60;;;4.82;;
11931;SDS011;6025;51.368;6.788;2022-08-19T21:10:11;7.18;;;4.97;;
11931;SDS011;6025;51.368;6.788;2022-08-19T21:15:02;6.57;;;5.20;;
11931;SDS011;6025;51.368;6.788;2022-08-19T21:19:56;9.50;;;5.93;;
11931;SDS011;6025;51.368;6.788;2022-08-19T21:24:47;7.10;;;5.85;;
11931;SDS011;6025;51.368;6.788;2022-08-19T21:29:40;9.38;;;6.53;;
11931;SDS011;6025;51.368;6.788;2022-08-19T21:34:32;8.95;;;6.75;;
11931;SDS011;6025;51.368;6.788;2022-08-19T21:39:23;10.85;;;8.18;;
11931;SDS011;6025;51.368;6.788;2022-08-19T21:44:15;14.02;;;10.95;;
11931;SDS011;6025;51.368;6.788;2022-08-19T21:49:08;14.45;;;11.43;;
11931;SDS011;6025;51.368;6.788;2022-08-19T21:53:59;24.67;;;14.25;;
11931;SDS011;6025;51.368;6.788;2022-08-19T21:58:51;21.90;;;15.90;;
11931;SDS011;6025;51.368;6.788;2022-08-19T22:03:44;21.17;;;15.57;;
11931;SDS011;6025;51.368;6.788;2022-08-19T22:08:37;19.70;;;14.90;;
11931;SDS011;6025;51.368;6.788;2022-08-19T22:13:30;20.42;;;15.07;;
11931;SDS011;6025;51.368;6.788;2022-08-19T22:18:27;20.27;;;14.63;;
11931;SDS011;6025;51.368;6.788;2022-08-19T22:23:18;18.60;;;13.82;;
11931;SDS011;6025;51.368;6.788;2022-08-19T22:28:12;18.17;;;13.27;;
11931;SDS011;6025;51.368;6.788;2022-08-19T22:33:07;17.27;;;11.77;;
11931;SDS011;6025;51.368;6.788;2022-08-19T22:38:01;18.08;;;12.07;;
11931;SDS011;6025;51.368;6.788;2022-08-19T22:42:56;14.18;;;10.65;;
11931;SDS011;6025;51.368;6.788;2022-08-19T22:47:50;13.32;;;10.55;;
11931;SDS011;6025;51.368;6.788;2022-08-19T22:52:42;14.43;;;11.77;;
11931;SDS011;6025;51.368;6.788;2022-08-19T22:57:33;13.60;;;12.05;;
11931;SDS011;6025;51.368;6.788;2022-08-19T23:02:25;15.35;;;12.90;;
11931;SDS011;6025;51.368;6.788;2022-08-19T23:07:20;15.95;;;12.20;;
11931;SDS011;6025;51.368;6.788;2022-08-19T23:12:12;16.20;;;11.63;;
11931;SDS011;6025;51.368;6.788;2022-08-19T23:17:04;15.45;;;13.05;;
11931;SDS011;6025;51.368;6.788;2022-08-19T23:21:56;17.77;;;12.88;;
11931;SDS011;6025;51.368;6.788;2022-08-19T23:26:49;16.17;;;12.88;;
11931;SDS011;6025;51.368;6.788;2022-08-19T23:31:59;13.65;;;11.32;;
11931;SDS011;6025;51.368;6.788;2022-08-19T23:36:51;12.18;;;10.88;;
11931;SDS011;6025;51.368;6.788;2022-08-19T23:41:43;14.18;;;11.40;;
11931;SDS011;6025;51.368;6.788;2022-08-19T23:46:36;12.95;;;10.98;;
11931;SDS011;6025;51.368;6.788;2022-08-19T23:51:29;15.70;;;11.73;;
11931;SDS011;6025;51.368;6.788;2022-08-19T23:56:21;14.85;;;11.93;;
